sensor_id;sensor_type;location;lat;lon;timestamp;P1;durP1;ratioP1;P2;durP2;ratioP2
18931;SDS011;9598;50.954;3.112;2022-09-17T00:03:51;6.53;;;1.90;;
18931;SDS011;9598;50.954;3.112;2022-09-17T00:08:54;9.25;;;2.28;;
18931;SDS011;9598;50.954;3.112;2022-09-17T00:13:59;6.57;;;1.95;;
18931;SDS011;9598;50.954;3.112;2022-09-17T00:19:03;5.68;;;2.28;;
18931;SDS011;9598;50.954;3.112;2022-09-17T00:24:06;6.57;;;1.83;;
18931;SDS011;9598;50.954;3.112;2022-09-17T00:29:12;8.32;;;2.20;;
18931;SDS011;9598;50.954;3.112;2022-09-17T00:34:14;6.18;;;1.75;;
18931;SDS011;9598;50.954;3.112;2022-09-17T00:39:16;7.13;;;1.85;;
18931;SDS011;9598;50.954;3.112;2022-09-17T00:49:42;16.50;;;3.58;;
18931;SDS011;9598;50.954;3.112;2022-09-17T00:54:45;12.20;;;4.07;;
18931;SDS011;9598;50.954;3.112;2022-09-17T00:59:54;11.93;;;3.47;;
18931;SDS011;9598;50.954;3.112;2022-09-17T01:04:56;13.55;;;3.33;;
18931;SDS011;9598;50.954;3.112;2022-09-17T01:09:58;12.23;;;3.15;;
18931;SDS011;9598;50.954;3.112;2022-09-17T01:15:13;12.40;;;3.35;;
18931;SDS011;9598;50.954;3.112;2022-09-17T01:20:44;8.93;;;3.08;;
18931;SDS011;9598;50.954;3.112;2022-09-17T01:26:16;11.10;;;2.63;;
18931;SDS011;9598;50.954;3.112;2022-09-17T01:31:42;11.00;;;2.85;;
18931;SDS011;9598;50.954;3.112;2022-09-17T01:36:51;10.73;;;2.47;;
18931;SDS011;9598;50.954;3.112;2022-09-17T01:42:03;8.50;;;2.72;;
18931;SDS011;9598;50.954;3.112;2022-09-17T01:47:15;8.88;;;2.50;;
18931;SDS011;9598;50.954;3.112;2022-09-17T01:52:21;12.48;;;2.55;;
18931;SDS011;9598;50.954;3.112;2022-09-17T01:57:26;8.15;;;2.20;;
18931;SDS011;9598;50.954;3.112;2022-09-17T02:02:34;9.70;;;2.67;;
18931;SDS011;9598;50.954;3.112;2022-09-17T02:07:41;10.73;;;3.40;;
18931;SDS011;9598;50.954;3.112;2022-09-17T02:12:48;11.85;;;3.17;;
18931;SDS011;9598;50.954;3.112;2022-09-17T02:17:57;9.65;;;2.70;;
18931;SDS011;9598;50.954;3.112;2022-09-17T02:23:07;13.77;;;3.40;;
18931;SDS011;9598;50.954;3.112;2022-09-17T02:28:15;11.80;;;3.25;;
18931;SDS011;9598;50.954;3.112;2022-09-17T02:33:25;8.75;;;2.67;;
18931;SDS011;9598;50.954;3.112;2022-09-17T02:38:30;8.57;;;2.50;;
18931;SDS011;9598;50.954;3.112;2022-09-17T02:43:34;8.77;;;2.45;;
18931;SDS011;9598;50.954;3.112;2022-09-17T02:48:57;6.00;;;2.28;;
18931;SDS011;9598;50.954;3.112;2022-09-17T02:54:12;10.93;;;2.55;;
18931;SDS011;9598;50.954;3.112;2022-09-17T02:59:25;6.28;;;1.92;;
18931;SDS011;9598;50.954;3.112;2022-09-17T03:04:33;9.77;;;2.58;;
18931;SDS011;9598;50.954;3.112;2022-09-17T03:09:37;6.10;;;2.45;;
18931;SDS011;9598;50.954;3.112;2022-09-17T03:14:40;12.02;;;2.70;;
18931;SDS011;9598;50.954;3.112;2022-09-17T03:19:43;9.40;;;2.00;;
18931;SDS011;9598;50.954;3.112;2022-09-17T03:24:45;9.93;;;2.17;;
18931;SDS011;9598;50.954;3.112;2022-09-17T03:29:47;8.20;;;2.22;;
18931;SDS011;9598;50.954;3.112;2022-09-17T03:34:51;10.38;;;2.42;;
18931;SDS011;9598;50.954;3.112;2022-09-17T03:39:53;6.72;;;1.70;;
18931;SDS011;9598;50.954;3.112;2022-09-17T03:44:55;7.40;;;2.42;;
18931;SDS011;9598;50.954;3.112;2022-09-17T03:49:59;8.75;;;2.70;;
18931;SDS011;9598;50.954;3.112;2022-09-17T03:55:01;9.23;;;2.53;;
18931;SDS011;9598;50.954;3.112;2022-09-17T04:00:04;12.77;;;2.25;;
18931;SDS011;9598;50.954;3.112;2022-09-17T04:05:13;8.63;;;2.00;;
18931;SDS011;9598;50.954;3.112;2022-09-17T04:10:15;5.15;;;1.23;;
18931;SDS011;9598;50.954;3.112;2022-09-17T04:15:17;5.28;;;1.30;;
18931;SDS011;9598;50.954;3.112;2022-09-17T04:20:21;3.53;;;1.20;;
18931;SDS011;9598;50.954;3.112;2022-09-17T04:25:23;7.30;;;1.80;;
18931;SDS011;9598;50.954;3.112;2022-09-17T04:30:25;7.53;;;1.90;;
18931;SDS011;9598;50.954;3.112;2022-09-17T04:35:28;6.30;;;1.90;;
18931;SDS011;9598;50.954;3.112;2022-09-17T04:40:30;5.10;;;1.70;;
18931;SDS011;9598;50.954;3.112;2022-09-17T04:45:33;4.20;;;1.40;;
18931;SDS011;9598;50.954;3.112;2022-09-17T04:50:36;6.90;;;1.65;;
18931;SDS011;9598;50.954;3.112;2022-09-17T04:55:38;6.15;;;1.60;;
18931;SDS011;9598;50.954;3.112;2022-09-17T05:00:40;5.93;;;2.13;;
18931;SDS011;9598;50.954;3.112;2022-09-17T05:05:44;8.90;;;2.70;;
18931;SDS011;9598;50.954;3.112;2022-09-17T05:10:46;8.63;;;2.47;;
18931;SDS011;9598;50.954;3.112;2022-09-17T05:15:49;7.95;;;2.35;;
18931;SDS011;9598;50.954;3.112;2022-09-17T05:20:53;7.43;;;2.30;;
18931;SDS011;9598;50.954;3.112;2022-09-17T05:25:56;9.68;;;2.40;;
18931;SDS011;9598;50.954;3.112;2022-09-17T05:30:59;5.68;;;2.45;;
18931;SDS011;9598;50.954;3.112;2022-09-17T05:36:03;7.75;;;2.00;;
18931;SDS011;9598;50.954;3.112;2022-09-17T05:41:06;9.23;;;2.55;;
18931;SDS011;9598;50.954;3.112;2022-09-17T05:46:08;8.73;;;2.22;;
18931;SDS011;9598;50.954;3.112;2022-09-17T05:51:12;7.55;;;2.65;;
18931;SDS011;9598;50.954;3.112;2022-09-17T05:56:14;4.10;;;1.65;;
18931;SDS011;9598;50.954;3.112;2022-09-17T06:01:16;8.07;;;1.98;;
18931;SDS011;9598;50.954;3.112;2022-09-17T06:06:20;6.30;;;1.77;;
18931;SDS011;9598;50.954;3.112;2022-09-17T06:11:22;7.57;;;2.00;;
18931;SDS011;9598;50.954;3.112;2022-09-17T06:16:24;7.65;;;2.22;;
18931;SDS011;9598;50.954;3.112;2022-09-17T06:21:27;8.55;;;2.47;;
18931;SDS011;9598;50.954;3.112;2022-09-17T06:26:29;9.45;;;1.95;;
18931;SDS011;9598;50.954;3.112;2022-09-17T06:31:31;5.55;;;2.17;;
18931;SDS011;9598;50.954;3.112;2022-09-17T06:36:35;7.70;;;2.38;;
18931;SDS011;9598;50.954;3.112;2022-09-17T06:41:37;9.63;;;2.40;;
18931;SDS011;9598;50.954;3.112;2022-09-17T06:46:41;7.63;;;2.83;;
18931;SDS011;9598;50.954;3.112;2022-09-17T06:51:44;9.23;;;2.60;;
18931;SDS011;9598;50.954;3.112;2022-09-17T06:56:46;10.30;;;2.30;;
18931;SDS011;9598;50.954;3.112;2022-09-17T07:01:48;6.10;;;2.22;;
18931;SDS011;9598;50.954;3.112;2022-09-17T07:06:52;5.90;;;2.40;;
18931;SDS011;9598;50.954;3.112;2022-09-17T07:11:54;8.75;;;2.50;;
18931;SDS011;9598;50.954;3.112;2022-09-17T07:16:56;6.03;;;1.95;;
18931;SDS011;9598;50.954;3.112;2022-09-17T07:22:00;11.38;;;1.92;;
18931;SDS011;9598;50.954;3.112;2022-09-17T07:27:02;11.25;;;2.53;;
18931;SDS011;9598;50.954;3.112;2022-09-17T07:32:04;6.00;;;2.15;;
18931;SDS011;9598;50.954;3.112;2022-09-17T07:37:08;7.28;;;1.70;;
18931;SDS011;9598;50.954;3.112;2022-09-17T07:42:10;5.63;;;1.70;;
18931;SDS011;9598;50.954;3.112;2022-09-17T07:47:12;6.68;;;2.42;;
18931;SDS011;9598;50.954;3.112;2022-09-17T07:52:15;7.40;;;2.45;;
18931;SDS011;9598;50.954;3.112;2022-09-17T07:57:17;5.85;;;2.17;;
18931;SDS011;9598;50.954;3.112;2022-09-17T08:02:19;6.18;;;2.05;;
18931;SDS011;9598;50.954;3.112;2022-09-17T08:07:23;5.25;;;1.77;;
18931;SDS011;9598;50.954;3.112;2022-09-17T08:12:25;4.07;;;1.75;;
18931;SDS011;9598;50.954;3.112;2022-09-17T08:17:27;2.70;;;1.48;;
18931;SDS011;9598;50.954;3.112;2022-09-17T08:22:31;6.65;;;1.98;;
18931;SDS011;9598;50.954;3.112;2022-09-17T08:27:33;3.65;;;1.48;;
18931;SDS011;9598;50.954;3.112;2022-09-17T08:32:36;8.07;;;1.55;;
18931;SDS011;9598;50.954;3.112;2022-09-17T08:37:40;6.47;;;1.70;;
18931;SDS011;9598;50.954;3.112;2022-09-17T08:42:45;5.43;;;1.60;;
18931;SDS011;9598;50.954;3.112;2022-09-17T08:47:53;3.67;;;1.60;;
18931;SDS011;9598;50.954;3.112;2022-09-17T08:53:13;4.95;;;1.55;;
18931;SDS011;9598;50.954;3.112;2022-09-17T08:58:32;4.72;;;1.90;;
18931;SDS011;9598;50.954;3.112;2022-09-17T09:04:02;8.50;;;2.40;;
18931;SDS011;9598;50.954;3.112;2022-09-17T09:09:29;7.07;;;2.03;;
18931;SDS011;9598;50.954;3.112;2022-09-17T09:14:36;6.15;;;1.73;;
18931;SDS011;9598;50.954;3.112;2022-09-17T09:19:48;4.25;;;1.80;;
18931;SDS011;9598;50.954;3.112;2022-09-17T09:24:56;5.57;;;1.90;;
18931;SDS011;9598;50.954;3.112;2022-09-17T09:30:05;9.48;;;2.10;;
18931;SDS011;9598;50.954;3.112;2022-09-17T09:35:15;3.58;;;1.70;;
18931;SDS011;9598;50.954;3.112;2022-09-17T09:40:23;5.38;;;1.73;;
18931;SDS011;9598;50.954;3.112;2022-09-17T09:45:36;4.90;;;1.67;;
18931;SDS011;9598;50.954;3.112;2022-09-17T09:50:46;9.00;;;2.10;;
18931;SDS011;9598;50.954;3.112;2022-09-17T09:56:07;4.90;;;1.55;;
18931;SDS011;9598;50.954;3.112;2022-09-17T10:01:33;8.82;;;1.48;;
18931;SDS011;9598;50.954;3.112;2022-09-17T10:06:39;4.68;;;1.80;;
18931;SDS011;9598;50.954;3.112;2022-09-17T10:11:42;3.97;;;1.45;;
18931;SDS011;9598;50.954;3.112;2022-09-17T10:17:10;5.30;;;1.85;;
18931;SDS011;9598;50.954;3.112;2022-09-17T10:22:22;6.70;;;1.65;;
18931;SDS011;9598;50.954;3.112;2022-09-17T10:27:31;5.05;;;1.58;;
18931;SDS011;9598;50.954;3.112;2022-09-17T10:32:36;6.85;;;1.80;;
18931;SDS011;9598;50.954;3.112;2022-09-17T10:37:41;3.88;;;1.83;;
18931;SDS011;9598;50.954;3.112;2022-09-17T10:42:46;6.90;;;1.60;;
18931;SDS011;9598;50.954;3.112;2022-09-17T10:47:49;7.13;;;1.67;;
18931;SDS011;9598;50.954;3.112;2022-09-17T10:52:52;6.43;;;1.70;;
18931;SDS011;9598;50.954;3.112;2022-09-17T10:58:07;4.88;;;1.77;;
18931;SDS011;9598;50.954;3.112;2022-09-17T11:03:24;6.15;;;1.48;;
18931;SDS011;9598;50.954;3.112;2022-09-17T11:08:50;5.20;;;1.50;;
18931;SDS011;9598;50.954;3.112;2022-09-17T11:14:03;4.90;;;1.75;;
18931;SDS011;9598;50.954;3.112;2022-09-17T11:19:18;5.63;;;1.38;;
18931;SDS011;9598;50.954;3.112;2022-09-17T11:30:00;6.30;;;1.67;;
18931;SDS011;9598;50.954;3.112;2022-09-17T11:35:08;3.38;;;1.55;;
18931;SDS011;9598;50.954;3.112;2022-09-17T11:40:15;3.90;;;1.58;;
18931;SDS011;9598;50.954;3.112;2022-09-17T11:45:26;7.80;;;1.83;;
18931;SDS011;9598;50.954;3.112;2022-09-17T11:50:34;5.03;;;1.40;;
18931;SDS011;9598;50.954;3.112;2022-09-17T11:55:43;5.53;;;1.50;;
18931;SDS011;9598;50.954;3.112;2022-09-17T12:00:52;6.57;;;1.70;;
18931;SDS011;9598;50.954;3.112;2022-09-17T12:06:02;7.10;;;2.20;;
18931;SDS011;9598;50.954;3.112;2022-09-17T12:11:10;8.77;;;1.67;;
18931;SDS011;9598;50.954;3.112;2022-09-17T12:16:19;7.90;;;2.00;;
18931;SDS011;9598;50.954;3.112;2022-09-17T12:21:25;4.72;;;1.35;;
18931;SDS011;9598;50.954;3.112;2022-09-17T12:26:33;7.03;;;2.47;;
18931;SDS011;9598;50.954;3.112;2022-09-17T12:32:09;4.40;;;2.00;;
18931;SDS011;9598;50.954;3.112;2022-09-17T12:37:26;6.47;;;1.90;;
18931;SDS011;9598;50.954;3.112;2022-09-17T12:42:49;3.97;;;1.70;;
18931;SDS011;9598;50.954;3.112;2022-09-17T12:48:08;5.30;;;1.70;;
18931;SDS011;9598;50.954;3.112;2022-09-17T12:53:50;6.70;;;1.98;;
18931;SDS011;9598;50.954;3.112;2022-09-17T12:59:03;5.68;;;1.60;;
18931;SDS011;9598;50.954;3.112;2022-09-17T13:04:22;4.38;;;1.45;;
18931;SDS011;9598;50.954;3.112;2022-09-17T13:09:46;4.05;;;1.60;;
18931;SDS011;9598;50.954;3.112;2022-09-17T13:20:42;5.85;;;2.20;;
18931;SDS011;9598;50.954;3.112;2022-09-17T13:26:00;3.22;;;1.60;;
18931;SDS011;9598;50.954;3.112;2022-09-17T13:31:05;6.05;;;1.65;;
18931;SDS011;9598;50.954;3.112;2022-09-17T13:36:21;7.45;;;1.70;;
18931;SDS011;9598;50.954;3.112;2022-09-17T13:41:43;7.70;;;1.70;;
18931;SDS011;9598;50.954;3.112;2022-09-17T13:46:45;5.03;;;1.52;;
18931;SDS011;9598;50.954;3.112;2022-09-17T13:51:49;4.57;;;1.42;;
18931;SDS011;9598;50.954;3.112;2022-09-17T13:57:03;5.28;;;1.63;;
18931;SDS011;9598;50.954;3.112;2022-09-17T14:07:45;3.72;;;1.25;;
18931;SDS011;9598;50.954;3.112;2022-09-17T14:12:51;4.60;;;1.23;;
18931;SDS011;9598;50.954;3.112;2022-09-17T14:17:55;5.57;;;1.45;;
18931;SDS011;9598;50.954;3.112;2022-09-17T14:22:59;2.42;;;1.35;;
18931;SDS011;9598;50.954;3.112;2022-09-17T14:28:02;5.65;;;1.60;;
18931;SDS011;9598;50.954;3.112;2022-09-17T14:33:14;7.65;;;1.90;;
18931;SDS011;9598;50.954;3.112;2022-09-17T14:38:20;2.97;;;1.45;;
18931;SDS011;9598;50.954;3.112;2022-09-17T14:43:26;4.90;;;1.38;;
18931;SDS011;9598;50.954;3.112;2022-09-17T14:48:38;7.38;;;1.88;;
18931;SDS011;9598;50.954;3.112;2022-09-17T14:53:43;3.80;;;1.30;;
18931;SDS011;9598;50.954;3.112;2022-09-17T14:58:46;3.38;;;1.15;;
18931;SDS011;9598;50.954;3.112;2022-09-17T15:09:25;8.82;;;3.88;;
18931;SDS011;9598;50.954;3.112;2022-09-17T15:14:28;5.10;;;2.53;;
18931;SDS011;9598;50.954;3.112;2022-09-17T15:19:32;5.43;;;2.00;;
18931;SDS011;9598;50.954;3.112;2022-09-17T15:24:40;5.63;;;2.33;;
18931;SDS011;9598;50.954;3.112;2022-09-17T15:29:44;3.67;;;1.73;;
18931;SDS011;9598;50.954;3.112;2022-09-17T15:35:13;4.78;;;1.25;;
18931;SDS011;9598;50.954;3.112;2022-09-17T15:40:24;5.97;;;1.92;;
18931;SDS011;9598;50.954;3.112;2022-09-17T15:45:29;4.28;;;1.75;;
18931;SDS011;9598;50.954;3.112;2022-09-17T15:50:33;5.82;;;1.63;;
18931;SDS011;9598;50.954;3.112;2022-09-17T15:55:37;3.58;;;1.70;;
18931;SDS011;9598;50.954;3.112;2022-09-17T16:00:41;4.95;;;2.80;;
18931;SDS011;9598;50.954;3.112;2022-09-17T16:05:43;7.13;;;5.78;;
18931;SDS011;9598;50.954;3.112;2022-09-17T16:10:48;5.28;;;2.13;;
18931;SDS011;9598;50.954;3.112;2022-09-17T16:15:50;5.22;;;1.95;;
18931;SDS011;9598;50.954;3.112;2022-09-17T16:20:53;4.20;;;1.77;;
18931;SDS011;9598;50.954;3.112;2022-09-17T16:25:56;7.28;;;2.40;;
18931;SDS011;9598;50.954;3.112;2022-09-17T16:30:58;4.57;;;1.73;;
18931;SDS011;9598;50.954;3.112;2022-09-17T16:36:00;4.75;;;1.90;;
18931;SDS011;9598;50.954;3.112;2022-09-17T16:41:05;3.72;;;2.00;;
18931;SDS011;9598;50.954;3.112;2022-09-17T16:46:08;6.10;;;1.73;;
18931;SDS011;9598;50.954;3.112;2022-09-17T16:51:12;6.05;;;1.90;;
18931;SDS011;9598;50.954;3.112;2022-09-17T16:56:15;2.38;;;1.30;;
18931;SDS011;9598;50.954;3.112;2022-09-17T17:01:17;4.00;;;1.50;;
18931;SDS011;9598;50.954;3.112;2022-09-17T17:06:20;4.40;;;1.75;;
18931;SDS011;9598;50.954;3.112;2022-09-17T17:11:24;3.40;;;1.80;;
18931;SDS011;9598;50.954;3.112;2022-09-17T17:16:27;3.42;;;1.40;;
18931;SDS011;9598;50.954;3.112;2022-09-17T17:21:29;5.43;;;1.38;;
18931;SDS011;9598;50.954;3.112;2022-09-17T17:26:32;4.35;;;1.83;;
18931;SDS011;9598;50.954;3.112;2022-09-17T17:31:34;4.45;;;1.55;;
18931;SDS011;9598;50.954;3.112;2022-09-17T17:36:36;1.90;;;1.23;;
18931;SDS011;9598;50.954;3.112;2022-09-17T17:41:40;2.80;;;1.60;;
18931;SDS011;9598;50.954;3.112;2022-09-17T17:46:43;4.32;;;1.77;;
18931;SDS011;9598;50.954;3.112;2022-09-17T17:51:46;5.07;;;1.50;;
18931;SDS011;9598;50.954;3.112;2022-09-17T17:56:50;3.67;;;1.80;;
18931;SDS011;9598;50.954;3.112;2022-09-17T18:01:52;2.45;;;1.15;;
18931;SDS011;9598;50.954;3.112;2022-09-17T18:06:54;4.47;;;1.65;;
18931;SDS011;9598;50.954;3.112;2022-09-17T18:11:57;3.95;;;1.20;;
18931;SDS011;9598;50.954;3.112;2022-09-17T18:16:59;3.22;;;1.40;;
18931;SDS011;9598;50.954;3.112;2022-09-17T18:22:01;3.35;;;1.40;;
18931;SDS011;9598;50.954;3.112;2022-09-17T18:27:05;4.75;;;1.35;;
18931;SDS011;9598;50.954;3.112;2022-09-17T18:32:07;3.10;;;1.55;;
18931;SDS011;9598;50.954;3.112;2022-09-17T18:37:09;3.22;;;1.77;;
18931;SDS011;9598;50.954;3.112;2022-09-17T18:42:12;3.10;;;1.55;;
18931;SDS011;9598;50.954;3.112;2022-09-17T18:47:14;3.42;;;1.65;;
18931;SDS011;9598;50.954;3.112;2022-09-17T18:52:17;2.97;;;1.25;;
18931;SDS011;9598;50.954;3.112;2022-09-17T18:57:21;4.47;;;1.50;;
18931;SDS011;9598;50.954;3.112;2022-09-17T19:02:23;2.85;;;1.52;;
18931;SDS011;9598;50.954;3.112;2022-09-17T19:07:25;3.67;;;1.48;;
18931;SDS011;9598;50.954;3.112;2022-09-17T19:12:29;2.47;;;1.27;;
18931;SDS011;9598;50.954;3.112;2022-09-17T19:17:31;3.42;;;1.38;;
18931;SDS011;9598;50.954;3.112;2022-09-17T19:22:33;4.47;;;1.48;;
18931;SDS011;9598;50.954;3.112;2022-09-17T19:27:36;7.13;;;1.70;;
18931;SDS011;9598;50.954;3.112;2022-09-17T19:32:39;3.15;;;1.60;;
18931;SDS011;9598;50.954;3.112;2022-09-17T19:37:45;4.65;;;2.00;;
18931;SDS011;9598;50.954;3.112;2022-09-17T19:42:51;6.20;;;2.55;;
18931;SDS011;9598;50.954;3.112;2022-09-17T19:47:54;2.78;;;2.40;;
18931;SDS011;9598;50.954;3.112;2022-09-17T19:53:00;2.58;;;1.80;;
18931;SDS011;9598;50.954;3.112;2022-09-17T19:58:04;2.13;;;1.23;;
18931;SDS011;9598;50.954;3.112;2022-09-17T20:03:06;2.92;;;1.75;;
18931;SDS011;9598;50.954;3.112;2022-09-17T20:08:09;3.25;;;1.45;;
18931;SDS011;9598;50.954;3.112;2022-09-17T20:13:12;2.25;;;1.58;;
18931;SDS011;9598;50.954;3.112;2022-09-17T20:18:14;2.22;;;1.60;;
18931;SDS011;9598;50.954;3.112;2022-09-17T20:23:16;5.47;;;1.60;;
18931;SDS011;9598;50.954;3.112;2022-09-17T20:28:19;2.45;;;1.25;;
18931;SDS011;9598;50.954;3.112;2022-09-17T20:33:21;2.38;;;1.55;;
18931;SDS011;9598;50.954;3.112;2022-09-17T20:38:23;2.33;;;1.60;;
18931;SDS011;9598;50.954;3.112;2022-09-17T20:43:27;3.25;;;1.35;;
18931;SDS011;9598;50.954;3.112;2022-09-17T20:48:33;2.60;;;1.10;;
18931;SDS011;9598;50.954;3.112;2022-09-17T20:53:36;3.30;;;1.50;;
18931;SDS011;9598;50.954;3.112;2022-09-17T20:58:40;5.50;;;1.55;;
18931;SDS011;9598;50.954;3.112;2022-09-17T21:03:48;3.47;;;1.38;;
18931;SDS011;9598;50.954;3.112;2022-09-17T21:08:51;3.92;;;1.17;;
18931;SDS011;9598;50.954;3.112;2022-09-17T21:13:55;3.17;;;1.60;;
18931;SDS011;9598;50.954;3.112;2022-09-17T21:18:59;3.45;;;1.60;;
18931;SDS011;9598;50.954;3.112;2022-09-17T21:24:02;3.20;;;1.17;;
18931;SDS011;9598;50.954;3.112;2022-09-17T21:29:07;1.35;;;1.05;;
18931;SDS011;9598;50.954;3.112;2022-09-17T21:34:09;2.63;;;1.27;;
18931;SDS011;9598;50.954;3.112;2022-09-17T21:39:13;2.55;;;1.08;;
18931;SDS011;9598;50.954;3.112;2022-09-17T21:44:18;4.80;;;1.70;;
18931;SDS011;9598;50.954;3.112;2022-09-17T21:49:20;5.28;;;1.38;;
18931;SDS011;9598;50.954;3.112;2022-09-17T21:54:22;2.67;;;1.35;;
18931;SDS011;9598;50.954;3.112;2022-09-17T21:59:25;2.85;;;1.60;;
18931;SDS011;9598;50.954;3.112;2022-09-17T22:04:27;2.42;;;1.20;;
18931;SDS011;9598;50.954;3.112;2022-09-17T22:09:30;3.60;;;1.10;;
18931;SDS011;9598;50.954;3.112;2022-09-17T22:14:33;2.75;;;1.05;;
18931;SDS011;9598;50.954;3.112;2022-09-17T22:19:35;2.10;;;1.90;;
18931;SDS011;9598;50.954;3.112;2022-09-17T22:24:37;3.03;;;1.70;;
18931;SDS011;9598;50.954;3.112;2022-09-17T22:29:44;2.25;;;1.20;;
18931;SDS011;9598;50.954;3.112;2022-09-17T22:34:46;5.57;;;1.80;;
18931;SDS011;9598;50.954;3.112;2022-09-17T22:39:48;3.25;;;1.58;;
18931;SDS011;9598;50.954;3.112;2022-09-17T22:44:52;1.42;;;1.25;;
18931;SDS011;9598;50.954;3.112;2022-09-17T22:49:54;1.75;;;1.45;;
18931;SDS011;9598;50.954;3.112;2022-09-17T22:54:56;4.90;;;1.20;;
18931;SDS011;9598;50.954;3.112;2022-09-17T22:59:59;1.40;;;1.10;;
18931;SDS011;9598;50.954;3.112;2022-09-17T23:05:02;2.10;;;1.00;;
18931;SDS011;9598;50.954;3.112;2022-09-17T23:10:04;1.10;;;1.00;;
18931;SDS011;9598;50.954;3.112;2022-09-17T23:15:08;2.60;;;1.30;;
18931;SDS011;9598;50.954;3.112;2022-09-17T23:20:11;2.38;;;1.20;;
18931;SDS011;9598;50.954;3.112;2022-09-17T23:25:13;1.30;;;1.20;;
18931;SDS011;9598;50.954;3.112;2022-09-17T23:30:16;2.15;;;1.40;;
18931;SDS011;9598;50.954;3.112;2022-09-17T23:35:18;3.35;;;1.27;;
18931;SDS011;9598;50.954;3.112;2022-09-17T23:40:21;4.88;;;1.55;;
18931;SDS011;9598;50.954;3.112;2022-09-17T23:45:28;2.25;;;1.25;;
18931;SDS011;9598;50.954;3.112;2022-09-17T23:50:30;3.25;;;1.40;;
18931;SDS011;9598;50.954;3.112;2022-09-17T23:55:32;2.20;;;1.30;;
